Flight Track Log - Related Links

Times and Time Zones

All times are in EDT time to prevent confusion due to time zone crossing. See the TAM3210 flight status page for this flight to view local times or setup timezone preferences in your user account.

Time Position Orientation Groundspeed Altitude Reporting Facility
EDT Latitude Longitude Course Direction KTS MPH feet Rate Location/Type
Wed 06:38:00 AM -22.9926 -46.2165 33° Northeast  Level Estimated
Wed 06:39:00 AM -22.9349 -46.1768 32° Northeast  Level Estimated
Wed 06:40:00 AM -22.8771 -46.1371 32° Northeast  Level Estimated
Wed 06:41:00 AM -22.8194 -46.0975 32° Northeast  Level Estimated
Wed 06:42:00 AM -22.7617 -46.0579 32° Northeast  Level Estimated
Wed 06:43:00 AM -22.7039 -46.0183 32° Northeast  Level Estimated
Wed 06:44:00 AM -22.6462 -45.9788 32° Northeast  Level Estimated
Wed 06:45:00 AM -22.5884 -45.9393 32° Northeast  Level Estimated
Wed 06:46:00 AM -22.5306 -45.8999 32° Northeast  Level Estimated
Wed 06:47:00 AM -22.4728 -45.8604 32° Northeast  Level Estimated
Wed 06:48:00 AM -22.4150 -45.8210 32° Northeast  Level Estimated
Wed 06:49:00 AM -22.3572 -45.7817 32° Northeast  Level Estimated
Wed 06:50:00 AM -22.2994 -45.7424 32° Northeast  Level Estimated
Wed 06:51:00 AM -22.2416 -45.7031 32° Northeast  Level Estimated
Wed 06:52:00 AM -22.1838 -45.6638 32° Northeast  Level Estimated
Wed 06:53:00 AM -22.1259 -45.6246 32° Northeast  Level Estimated
Wed 06:54:00 AM -22.0681 -45.5854 32° Northeast  Level Estimated
Wed 06:55:00 AM -22.0102 -45.5462 32° Northeast  Level Estimated
Wed 06:56:00 AM -21.9524 -45.5071 32° Northeast  Level Estimated
Wed 06:57:00 AM -21.8945 -45.4680 32° Northeast  Level Estimated
Wed 06:58:00 AM -21.8366 -45.4289 32° Northeast  Level Estimated
Wed 06:59:00 AM -21.7787 -45.3899 32° Northeast  Level Estimated
Wed 07:00:00 AM -21.7208 -45.3508 32° Northeast  Level Estimated
Wed 07:01:00 AM -21.6629 -45.3119 32° Northeast  Level Estimated
Wed 07:02:00 AM -21.6049 -45.2729 32° Northeast  Level Estimated
Wed 07:03:00 AM -21.5470 -45.2340 32° Northeast  Level Estimated
Wed 07:04:00 AM -21.4891 -45.1951 32° Northeast  Level Estimated
Wed 07:05:00 AM -21.4311 -45.1563 32° Northeast  Level Estimated
Wed 07:06:00 AM -21.3731 -45.1175 32° Northeast  Level Estimated
Wed 07:07:00 AM -21.3152 -45.0787 32° Northeast  Level Estimated
Wed 07:08:00 AM -21.2572 -45.0399 32° Northeast  Level Estimated
Wed 07:09:00 AM -21.1992 -45.0012 32° Northeast  Level Estimated
Wed 07:10:00 AM -21.1412 -44.9625 32° Northeast  Level Estimated
Wed 07:11:00 AM -21.0832 -44.9238 32° Northeast  Level Estimated
Wed 07:12:00 AM -21.0252 -44.8852 32° Northeast  Level Estimated
Wed 07:13:00 AM -20.9672 -44.8466 32° Northeast  Level Estimated
Wed 07:14:00 AM -20.9091 -44.8080 32° Northeast  Level Estimated
Wed 07:15:00 AM -20.8511 -44.7694 32° Northeast  Level Estimated
Wed 07:16:00 AM -20.7931 -44.7309 32° Northeast  Level Estimated
Wed 07:17:00 AM -20.7350 -44.6924 32° Northeast  Level Estimated
Wed 07:18:00 AM -20.6769 -44.6540 32° Northeast  Level Estimated
Wed 07:19:00 AM -20.6189 -44.6155 32° Northeast  Level Estimated
Wed 07:20:00 AM -20.5608 -44.5771 32° Northeast  Level Estimated
Wed 07:21:00 AM -20.5027 -44.5388 32° Northeast  Level Estimated
Wed 07:22:00 AM -20.4446 -44.5004 32° Northeast  Level Estimated
Wed 07:23:00 AM -20.3865 -44.4621 32° Northeast  Level Estimated
Wed 07:24:00 AM -20.3284 -44.4238 32° Northeast  Level Estimated
Wed 07:25:00 AM -20.2702 -44.3856 32° Northeast  Level Estimated
Wed 07:26:00 AM -20.2121 -44.3473 32° Northeast  Level Estimated
Wed 07:27:00 AM -20.1540 -44.3091 32° Northeast  Level Estimated
Wed 07:28:00 AM -20.0958 -44.2710 32° Northeast  Level Estimated
Wed 07:29:00 AM -20.0376 -44.2328 32° Northeast  Level Estimated
Wed 07:30:00 AM -19.9795 -44.1947 32° Northeast  Level Estimated
Wed 07:31:00 AM -19.9213 -44.1566 32° Northeast  Level Estimated
Wed 07:32:00 AM -19.8631 -44.1186 32° Northeast  Level Estimated
Wed 07:33:00 AM -19.8049 -44.0805 32° Northeast  Level Estimated
Wed 07:34:00 AM -19.7467 -44.0425 32° Northeast  Level Estimated
Wed 07:35:00 AM -19.6885 -44.0046 32° Northeast  Level Estimated
Wed 07:36:00 AM -19.6338 -43.9689 32° Northeast  Level Estimated
Wed 07:37:00 AM -19.6338 -43.9689 90° East  Level Estimated
Wed 07:38:00 AM -19.6338 -43.9689 90° East  Level Estimated
Wed 07:39:00 AM -19.6338 -43.9689 90° East  Level Estimated
Wed 07:40:00 AM -19.6338 -43.9689 90° East  Level Estimated
Wed 07:41:00 AM -19.6338 -43.9689 90° East  Level Estimated
Wed 07:42:00 AM -19.6338 -43.9689 90° East  Level Estimated
Wed 07:43:00 AM -19.6338 -43.9689 90° East  Level Estimated
Wed 07:44:00 AM -19.6338 -43.9689 90° East  Level Estimated
Wed 07:45:00 AM -19.6338 -43.9689 90° East  Level Estimated
Wed 07:46:00 AM -19.6338 -43.9689 90° East  Level Estimated
Wed 07:47:00 AM -19.6338 -43.9689 90° East  Level Estimated
Wed 07:48:00 AM -19.6338 -43.9689 90° East  Level Estimated

Login

Don't have an account? Register now (free) for customized features, flight alerts, and more!